sensor_id;sensor_type;location;lat;lon;timestamp;P1;durP1;ratioP1;P2;durP2;ratioP2
56455;SDS011;42354;53.218;6.564;2023-02-28T00:00:09;15.88;;;2.60;;
56455;SDS011;42354;53.218;6.564;2023-02-28T00:02:37;11.98;;;2.15;;
56455;SDS011;42354;53.218;6.564;2023-02-28T00:05:04;10.55;;;2.28;;
56455;SDS011;42354;53.218;6.564;2023-02-28T00:07:30;9.43;;;2.53;;
56455;SDS011;42354;53.218;6.564;2023-02-28T00:09:59;8.55;;;2.75;;
56455;SDS011;42354;53.218;6.564;2023-02-28T00:12:29;14.48;;;2.10;;
56455;SDS011;42354;53.218;6.564;2023-02-28T00:14:55;10.50;;;2.45;;
56455;SDS011;42354;53.218;6.564;2023-02-28T00:17:20;9.65;;;2.50;;
56455;SDS011;42354;53.218;6.564;2023-02-28T00:19:50;13.07;;;2.38;;
56455;SDS011;42354;53.218;6.564;2023-02-28T00:22:21;11.77;;;2.50;;
56455;SDS011;42354;53.218;6.564;2023-02-28T00:24:46;17.38;;;3.47;;
56455;SDS011;42354;53.218;6.564;2023-02-28T00:27:13;8.93;;;3.45;;
56455;SDS011;42354;53.218;6.564;2023-02-28T00:29:39;14.27;;;3.63;;
56455;SDS011;42354;53.218;6.564;2023-02-28T00:32:04;11.18;;;2.88;;
56455;SDS011;42354;53.218;6.564;2023-02-28T00:34:31;10.00;;;2.40;;
56455;SDS011;42354;53.218;6.564;2023-02-28T00:37:02;13.43;;;2.58;;
56455;SDS011;42354;53.218;6.564;2023-02-28T00:39:28;17.45;;;3.10;;
56455;SDS011;42354;53.218;6.564;2023-02-28T00:41:54;15.35;;;3.40;;
56455;SDS011;42354;53.218;6.564;2023-02-28T00:44:19;16.00;;;3.55;;
56455;SDS011;42354;53.218;6.564;2023-02-28T00:46:46;15.38;;;2.95;;
56455;SDS011;42354;53.218;6.564;2023-02-28T00:49:12;12.48;;;2.60;;
56455;SDS011;42354;53.218;6.564;2023-02-28T00:51:37;13.02;;;3.35;;
56455;SDS011;42354;53.218;6.564;2023-02-28T00:54:02;11.95;;;2.80;;
56455;SDS011;42354;53.218;6.564;2023-02-28T00:56:28;9.25;;;2.75;;
56455;SDS011;42354;53.218;6.564;2023-02-28T00:58:53;11.07;;;2.90;;
56455;SDS011;42354;53.218;6.564;2023-02-28T01:01:20;9.93;;;2.55;;
56455;SDS011;42354;53.218;6.564;2023-02-28T01:03:46;9.20;;;2.40;;
56455;SDS011;42354;53.218;6.564;2023-02-28T01:06:11;9.55;;;2.17;;
56455;SDS011;42354;53.218;6.564;2023-02-28T01:08:36;11.90;;;2.88;;
56455;SDS011;42354;53.218;6.564;2023-02-28T01:11:09;8.95;;;2.42;;
56455;SDS011;42354;53.218;6.564;2023-02-28T01:13:36;10.13;;;2.88;;
56455;SDS011;42354;53.218;6.564;2023-02-28T01:16:01;17.38;;;3.25;;
56455;SDS011;42354;53.218;6.564;2023-02-28T01:18:28;12.68;;;3.03;;
56455;SDS011;42354;53.218;6.564;2023-02-28T01:20:54;10.40;;;3.17;;
56455;SDS011;42354;53.218;6.564;2023-02-28T01:23:20;13.30;;;3.15;;
56455;SDS011;42354;53.218;6.564;2023-02-28T01:25:48;12.45;;;3.25;;
56455;SDS011;42354;53.218;6.564;2023-02-28T01:28:14;13.93;;;3.30;;
56455;SDS011;42354;53.218;6.564;2023-02-28T01:30:40;11.27;;;3.00;;
56455;SDS011;42354;53.218;6.564;2023-02-28T01:33:05;12.23;;;3.10;;
56455;SDS011;42354;53.218;6.564;2023-02-28T01:35:34;12.10;;;2.72;;
56455;SDS011;42354;53.218;6.564;2023-02-28T01:38:00;12.18;;;2.92;;
56455;SDS011;42354;53.218;6.564;2023-02-28T01:40:26;14.15;;;3.00;;
56455;SDS011;42354;53.218;6.564;2023-02-28T01:42:52;13.07;;;2.83;;
56455;SDS011;42354;53.218;6.564;2023-02-28T01:48:00;14.10;;;2.95;;
56455;SDS011;42354;53.218;6.564;2023-02-28T01:50:29;12.55;;;2.83;;
56455;SDS011;42354;53.218;6.564;2023-02-28T01:53:04;12.13;;;2.75;;
56455;SDS011;42354;53.218;6.564;2023-02-28T01:55:33;12.07;;;3.33;;
56455;SDS011;42354;53.218;6.564;2023-02-28T01:58:02;11.95;;;3.40;;
56455;SDS011;42354;53.218;6.564;2023-02-28T02:00:29;11.35;;;2.75;;
56455;SDS011;42354;53.218;6.564;2023-02-28T02:02:59;8.50;;;2.88;;
56455;SDS011;42354;53.218;6.564;2023-02-28T02:05:33;12.70;;;3.10;;
56455;SDS011;42354;53.218;6.564;2023-02-28T02:08:03;18.50;;;3.35;;
56455;SDS011;42354;53.218;6.564;2023-02-28T02:34:48;18.27;;;3.13;;
56455;SDS011;42354;53.218;6.564;2023-02-28T02:37:38;17.52;;;2.45;;
56455;SDS011;42354;53.218;6.564;2023-02-28T02:40:09;11.73;;;2.33;;
56455;SDS011;42354;53.218;6.564;2023-02-28T02:47:47;14.95;;;2.28;;
56455;SDS011;42354;53.218;6.564;2023-02-28T02:50:57;11.20;;;2.58;;
56455;SDS011;42354;53.218;6.564;2023-02-28T02:53:28;5.22;;;1.98;;
56455;SDS011;42354;53.218;6.564;2023-02-28T02:56:00;17.52;;;2.38;;
56455;SDS011;42354;53.218;6.564;2023-02-28T02:58:29;18.55;;;2.50;;
56455;SDS011;42354;53.218;6.564;2023-02-28T03:00:59;12.73;;;2.22;;
56455;SDS011;42354;53.218;6.564;2023-02-28T03:03:27;11.15;;;2.53;;
56455;SDS011;42354;53.218;6.564;2023-02-28T03:05:56;9.25;;;2.28;;
56455;SDS011;42354;53.218;6.564;2023-02-28T03:08:23;9.10;;;2.20;;
56455;SDS011;42354;53.218;6.564;2023-02-28T03:10:50;11.60;;;2.08;;
56455;SDS011;42354;53.218;6.564;2023-02-28T03:18:44;15.15;;;6.07;;
56455;SDS011;42354;53.218;6.564;2023-02-28T03:21:23;13.63;;;7.95;;
56455;SDS011;42354;53.218;6.564;2023-02-28T03:24:03;15.18;;;7.15;;
56455;SDS011;42354;53.218;6.564;2023-02-28T03:26:36;14.77;;;7.88;;
56455;SDS011;42354;53.218;6.564;2023-02-28T03:29:22;16.45;;;8.18;;
56455;SDS011;42354;53.218;6.564;2023-02-28T03:34:48;20.05;;;8.40;;
56455;SDS011;42354;53.218;6.564;2023-02-28T03:37:22;20.10;;;8.65;;
56455;SDS011;42354;53.218;6.564;2023-02-28T03:39:53;23.48;;;10.40;;
56455;SDS011;42354;53.218;6.564;2023-02-28T03:44:57;23.77;;;12.73;;
56455;SDS011;42354;53.218;6.564;2023-02-28T03:47:31;23.45;;;12.00;;
56455;SDS011;42354;53.218;6.564;2023-02-28T03:50:02;24.90;;;12.27;;
56455;SDS011;42354;53.218;6.564;2023-02-28T03:52:34;27.77;;;13.40;;
56455;SDS011;42354;53.218;6.564;2023-02-28T03:55:05;27.88;;;13.85;;
56455;SDS011;42354;53.218;6.564;2023-02-28T04:00:10;22.80;;;11.82;;
56455;SDS011;42354;53.218;6.564;2023-02-28T04:02:41;25.42;;;12.40;;
56455;SDS011;42354;53.218;6.564;2023-02-28T04:05:06;25.08;;;12.38;;
56455;SDS011;42354;53.218;6.564;2023-02-28T04:07:32;25.48;;;10.75;;
56455;SDS011;42354;53.218;6.564;2023-02-28T04:09:58;24.60;;;11.68;;
56455;SDS011;42354;53.218;6.564;2023-02-28T04:12:24;24.30;;;11.68;;
56455;SDS011;42354;53.218;6.564;2023-02-28T04:14:50;26.02;;;11.43;;
56455;SDS011;42354;53.218;6.564;2023-02-28T04:17:16;25.50;;;11.43;;
56455;SDS011;42354;53.218;6.564;2023-02-28T04:19:41;22.92;;;11.27;;
56455;SDS011;42354;53.218;6.564;2023-02-28T04:22:07;26.17;;;12.68;;
56455;SDS011;42354;53.218;6.564;2023-02-28T04:24:35;26.42;;;11.38;;
56455;SDS011;42354;53.218;6.564;2023-02-28T04:27:00;23.90;;;11.85;;
56455;SDS011;42354;53.218;6.564;2023-02-28T04:29:27;25.27;;;10.93;;
56455;SDS011;42354;53.218;6.564;2023-02-28T04:31:54;18.90;;;10.20;;
56455;SDS011;42354;53.218;6.564;2023-02-28T04:34:24;22.02;;;10.55;;
56455;SDS011;42354;53.218;6.564;2023-02-28T04:36:54;18.58;;;9.38;;
56455;SDS011;42354;53.218;6.564;2023-02-28T04:39:21;19.50;;;9.23;;
56455;SDS011;42354;53.218;6.564;2023-02-28T04:41:48;15.65;;;8.57;;
56455;SDS011;42354;53.218;6.564;2023-02-28T04:44:14;15.35;;;8.57;;
56455;SDS011;42354;53.218;6.564;2023-02-28T04:46:40;16.88;;;8.50;;
56455;SDS011;42354;53.218;6.564;2023-02-28T04:49:06;17.20;;;8.70;;
56455;SDS011;42354;53.218;6.564;2023-02-28T04:51:31;18.45;;;8.85;;
56455;SDS011;42354;53.218;6.564;2023-02-28T04:53:57;13.85;;;8.13;;
56455;SDS011;42354;53.218;6.564;2023-02-28T04:56:22;17.17;;;8.20;;
56455;SDS011;42354;53.218;6.564;2023-02-28T04:58:48;21.15;;;8.75;;
56455;SDS011;42354;53.218;6.564;2023-02-28T05:01:27;17.60;;;8.40;;
56455;SDS011;42354;53.218;6.564;2023-02-28T05:03:55;16.17;;;8.00;;
56455;SDS011;42354;53.218;6.564;2023-02-28T05:06:24;16.23;;;8.50;;
56455;SDS011;42354;53.218;6.564;2023-02-28T05:08:52;15.45;;;8.43;;
56455;SDS011;42354;53.218;6.564;2023-02-28T05:13:49;17.95;;;8.55;;
56455;SDS011;42354;53.218;6.564;2023-02-28T05:16:15;18.95;;;8.60;;
56455;SDS011;42354;53.218;6.564;2023-02-28T05:18:41;15.52;;;8.05;;
56455;SDS011;42354;53.218;6.564;2023-02-28T05:21:16;17.48;;;8.40;;
56455;SDS011;42354;53.218;6.564;2023-02-28T05:23:48;14.52;;;7.82;;
56455;SDS011;42354;53.218;6.564;2023-02-28T05:26:14;18.65;;;9.18;;
56455;SDS011;42354;53.218;6.564;2023-02-28T05:28:39;23.00;;;8.68;;
56455;SDS011;42354;53.218;6.564;2023-02-28T05:31:04;18.58;;;8.98;;
56455;SDS011;42354;53.218;6.564;2023-02-28T05:33:30;18.27;;;9.07;;
56455;SDS011;42354;53.218;6.564;2023-02-28T05:35:55;18.05;;;8.63;;
56455;SDS011;42354;53.218;6.564;2023-02-28T05:38:20;16.05;;;7.78;;
56455;SDS011;42354;53.218;6.564;2023-02-28T05:40:46;20.50;;;8.80;;
56455;SDS011;42354;53.218;6.564;2023-02-28T05:43:11;18.77;;;8.32;;
56455;SDS011;42354;53.218;6.564;2023-02-28T05:45:37;18.20;;;9.93;;
56455;SDS011;42354;53.218;6.564;2023-02-28T05:48:02;21.15;;;9.43;;
56455;SDS011;42354;53.218;6.564;2023-02-28T05:50:27;19.23;;;9.55;;
56455;SDS011;42354;53.218;6.564;2023-02-28T05:52:53;20.65;;;10.23;;
56455;SDS011;42354;53.218;6.564;2023-02-28T05:55:18;19.55;;;9.80;;
56455;SDS011;42354;53.218;6.564;2023-02-28T05:57:44;22.30;;;10.75;;
56455;SDS011;42354;53.218;6.564;2023-02-28T06:00:09;22.45;;;11.35;;
56455;SDS011;42354;53.218;6.564;2023-02-28T06:02:35;21.45;;;10.90;;
56455;SDS011;42354;53.218;6.564;2023-02-28T06:05:01;20.60;;;10.60;;
56455;SDS011;42354;53.218;6.564;2023-02-28T06:07:26;22.95;;;11.10;;
56455;SDS011;42354;53.218;6.564;2023-02-28T06:09:52;22.92;;;11.07;;
56455;SDS011;42354;53.218;6.564;2023-02-28T06:12:17;24.98;;;11.93;;
56455;SDS011;42354;53.218;6.564;2023-02-28T06:14:42;24.58;;;11.27;;
56455;SDS011;42354;53.218;6.564;2023-02-28T06:17:08;23.17;;;11.85;;
56455;SDS011;42354;53.218;6.564;2023-02-28T06:19:36;24.13;;;11.45;;
56455;SDS011;42354;53.218;6.564;2023-02-28T06:22:03;22.48;;;11.45;;
56455;SDS011;42354;53.218;6.564;2023-02-28T06:24:29;23.88;;;11.50;;
56455;SDS011;42354;53.218;6.564;2023-02-28T06:26:56;25.65;;;12.10;;
56455;SDS011;42354;53.218;6.564;2023-02-28T06:29:23;24.52;;;11.50;;
56455;SDS011;42354;53.218;6.564;2023-02-28T06:31:49;29.05;;;13.60;;
56455;SDS011;42354;53.218;6.564;2023-02-28T06:34:14;25.52;;;12.18;;
56455;SDS011;42354;53.218;6.564;2023-02-28T06:36:41;23.38;;;11.77;;
56455;SDS011;42354;53.218;6.564;2023-02-28T06:39:08;23.85;;;11.07;;
56455;SDS011;42354;53.218;6.564;2023-02-28T06:41:34;21.77;;;11.07;;
56455;SDS011;42354;53.218;6.564;2023-02-28T06:44:03;20.30;;;10.23;;
56455;SDS011;42354;53.218;6.564;2023-02-28T06:46:30;22.52;;;10.90;;
56455;SDS011;42354;53.218;6.564;2023-02-28T06:48:56;26.88;;;11.77;;
56455;SDS011;42354;53.218;6.564;2023-02-28T06:51:22;24.17;;;11.57;;
56455;SDS011;42354;53.218;6.564;2023-02-28T06:53:49;25.77;;;12.15;;
56455;SDS011;42354;53.218;6.564;2023-02-28T06:56:15;26.55;;;12.00;;
56455;SDS011;42354;53.218;6.564;2023-02-28T06:58:42;28.75;;;12.90;;
56455;SDS011;42354;53.218;6.564;2023-02-28T07:01:10;26.92;;;12.23;;
56455;SDS011;42354;53.218;6.564;2023-02-28T07:03:36;25.85;;;11.98;;
56455;SDS011;42354;53.218;6.564;2023-02-28T07:06:02;29.33;;;12.35;;
56455;SDS011;42354;53.218;6.564;2023-02-28T07:08:29;26.95;;;12.57;;
56455;SDS011;42354;53.218;6.564;2023-02-28T07:10:55;26.80;;;13.30;;
56455;SDS011;42354;53.218;6.564;2023-02-28T07:13:21;25.85;;;12.52;;
56455;SDS011;42354;53.218;6.564;2023-02-28T07:15:58;24.83;;;12.95;;
56455;SDS011;42354;53.218;6.564;2023-02-28T07:18:25;29.27;;;13.45;;
56455;SDS011;42354;53.218;6.564;2023-02-28T07:20:51;27.40;;;13.00;;
56455;SDS011;42354;53.218;6.564;2023-02-28T07:23:17;28.35;;;13.70;;
56455;SDS011;42354;53.218;6.564;2023-02-28T07:25:42;27.58;;;14.80;;
56455;SDS011;42354;53.218;6.564;2023-02-28T07:28:09;29.80;;;14.38;;
56455;SDS011;42354;53.218;6.564;2023-02-28T07:30:35;25.30;;;13.18;;
56455;SDS011;42354;53.218;6.564;2023-02-28T07:33:01;29.40;;;14.45;;
56455;SDS011;42354;53.218;6.564;2023-02-28T07:35:26;29.42;;;14.05;;
56455;SDS011;42354;53.218;6.564;2023-02-28T07:37:51;31.30;;;14.45;;
56455;SDS011;42354;53.218;6.564;2023-02-28T07:40:17;27.67;;;13.52;;
56455;SDS011;42354;53.218;6.564;2023-02-28T07:42:43;28.77;;;14.43;;
56455;SDS011;42354;53.218;6.564;2023-02-28T07:45:10;31.52;;;15.15;;
56455;SDS011;42354;53.218;6.564;2023-02-28T07:47:39;31.50;;;15.18;;
56455;SDS011;42354;53.218;6.564;2023-02-28T07:50:07;26.55;;;13.82;;
56455;SDS011;42354;53.218;6.564;2023-02-28T07:52:34;31.33;;;14.05;;
56455;SDS011;42354;53.218;6.564;2023-02-28T07:54:59;30.27;;;14.82;;
56455;SDS011;42354;53.218;6.564;2023-02-28T07:57:25;33.33;;;15.43;;
56455;SDS011;42354;53.218;6.564;2023-02-28T07:59:50;28.88;;;15.65;;
56455;SDS011;42354;53.218;6.564;2023-02-28T08:02:16;32.22;;;14.57;;
56455;SDS011;42354;53.218;6.564;2023-02-28T08:04:43;25.58;;;14.68;;
56455;SDS011;42354;53.218;6.564;2023-02-28T08:07:09;35.10;;;17.15;;
56455;SDS011;42354;53.218;6.564;2023-02-28T08:09:38;30.85;;;15.23;;
56455;SDS011;42354;53.218;6.564;2023-02-28T08:12:04;32.22;;;14.93;;
56455;SDS011;42354;53.218;6.564;2023-02-28T08:14:30;28.60;;;14.68;;
56455;SDS011;42354;53.218;6.564;2023-02-28T08:16:55;31.52;;;14.70;;
56455;SDS011;42354;53.218;6.564;2023-02-28T08:19:20;27.65;;;13.55;;
56455;SDS011;42354;53.218;6.564;2023-02-28T08:21:46;27.40;;;14.48;;
56455;SDS011;42354;53.218;6.564;2023-02-28T08:24:12;27.45;;;14.45;;
56455;SDS011;42354;53.218;6.564;2023-02-28T08:26:37;32.60;;;15.00;;
56455;SDS011;42354;53.218;6.564;2023-02-28T08:29:02;24.13;;;14.00;;
56455;SDS011;42354;53.218;6.564;2023-02-28T08:31:28;28.52;;;15.05;;
56455;SDS011;42354;53.218;6.564;2023-02-28T08:33:53;32.42;;;15.45;;
56455;SDS011;42354;53.218;6.564;2023-02-28T08:36:21;30.00;;;14.60;;
56455;SDS011;42354;53.218;6.564;2023-02-28T08:38:48;30.42;;;13.82;;
56455;SDS011;42354;53.218;6.564;2023-02-28T08:41:13;26.08;;;13.38;;
56455;SDS011;42354;53.218;6.564;2023-02-28T08:43:39;28.50;;;14.60;;
56455;SDS011;42354;53.218;6.564;2023-02-28T08:46:05;26.90;;;13.98;;
56455;SDS011;42354;53.218;6.564;2023-02-28T08:48:32;28.95;;;14.10;;
56455;SDS011;42354;53.218;6.564;2023-02-28T08:51:00;27.02;;;14.00;;
56455;SDS011;42354;53.218;6.564;2023-02-28T08:53:27;22.05;;;12.48;;
56455;SDS011;42354;53.218;6.564;2023-02-28T08:56:12;20.85;;;12.88;;
56455;SDS011;42354;53.218;6.564;2023-02-28T08:58:38;24.05;;;13.40;;
56455;SDS011;42354;53.218;6.564;2023-02-28T09:01:20;23.35;;;13.55;;
56455;SDS011;42354;53.218;6.564;2023-02-28T09:03:47;20.73;;;12.03;;
56455;SDS011;42354;53.218;6.564;2023-02-28T09:06:15;27.02;;;13.15;;
56455;SDS011;42354;53.218;6.564;2023-02-28T09:08:41;26.73;;;13.18;;
56455;SDS011;42354;53.218;6.564;2023-02-28T09:11:08;19.38;;;10.98;;
56455;SDS011;42354;53.218;6.564;2023-02-28T09:13:34;21.83;;;11.10;;
56455;SDS011;42354;53.218;6.564;2023-02-28T09:16:00;21.40;;;11.98;;
56455;SDS011;42354;53.218;6.564;2023-02-28T09:18:27;21.42;;;11.63;;
56455;SDS011;42354;53.218;6.564;2023-02-28T09:20:53;20.75;;;11.65;;
56455;SDS011;42354;53.218;6.564;2023-02-28T09:23:25;20.02;;;12.02;;
56455;SDS011;42354;53.218;6.564;2023-02-28T09:25:51;26.15;;;12.38;;
56455;SDS011;42354;53.218;6.564;2023-02-28T09:28:19;21.42;;;11.38;;
56455;SDS011;42354;53.218;6.564;2023-02-28T09:30:46;21.60;;;12.15;;
56455;SDS011;42354;53.218;6.564;2023-02-28T09:33:13;20.63;;;11.88;;
56455;SDS011;42354;53.218;6.564;2023-02-28T09:35:40;20.17;;;12.15;;
56455;SDS011;42354;53.218;6.564;2023-02-28T09:38:06;21.33;;;11.38;;
56455;SDS011;42354;53.218;6.564;2023-02-28T09:40:35;20.60;;;11.38;;
56455;SDS011;42354;53.218;6.564;2023-02-28T09:43:03;20.55;;;11.70;;
56455;SDS011;42354;53.218;6.564;2023-02-28T09:45:37;24.10;;;12.35;;
56455;SDS011;42354;53.218;6.564;2023-02-28T09:48:16;20.15;;;11.55;;
56455;SDS011;42354;53.218;6.564;2023-02-28T09:50:47;22.48;;;11.75;;
56455;SDS011;42354;53.218;6.564;2023-02-28T09:55:59;22.25;;;12.07;;
56455;SDS011;42354;53.218;6.564;2023-02-28T10:01:37;20.05;;;11.68;;
56455;SDS011;42354;53.218;6.564;2023-02-28T10:10:23;20.95;;;12.13;;
56455;SDS011;42354;53.218;6.564;2023-02-28T10:12:53;19.00;;;10.57;;
56455;SDS011;42354;53.218;6.564;2023-02-28T10:15:23;15.23;;;9.32;;
56455;SDS011;42354;53.218;6.564;2023-02-28T10:17:53;15.60;;;8.70;;
56455;SDS011;42354;53.218;6.564;2023-02-28T10:20:23;13.63;;;8.77;;
56455;SDS011;42354;53.218;6.564;2023-02-28T10:23:04;17.30;;;9.65;;
56455;SDS011;42354;53.218;6.564;2023-02-28T10:25:55;14.70;;;8.23;;
56455;SDS011;42354;53.218;6.564;2023-02-28T10:28:25;17.17;;;8.77;;
56455;SDS011;42354;53.218;6.564;2023-02-28T10:30:53;16.58;;;8.63;;
56455;SDS011;42354;53.218;6.564;2023-02-28T10:35:45;19.13;;;9.88;;
56455;SDS011;42354;53.218;6.564;2023-02-28T10:38:15;15.40;;;9.05;;
56455;SDS011;42354;53.218;6.564;2023-02-28T10:40:42;21.05;;;8.60;;
56455;SDS011;42354;53.218;6.564;2023-02-28T10:45:39;12.40;;;7.65;;
56455;SDS011;42354;53.218;6.564;2023-02-28T10:53:16;15.70;;;7.15;;
56455;SDS011;42354;53.218;6.564;2023-02-28T10:58:50;12.77;;;7.07;;
56455;SDS011;42354;53.218;6.564;2023-02-28T11:04:04;11.50;;;6.30;;
56455;SDS011;42354;53.218;6.564;2023-02-28T11:06:42;9.75;;;6.15;;
56455;SDS011;42354;53.218;6.564;2023-02-28T11:12:07;10.18;;;5.07;;
56455;SDS011;42354;53.218;6.564;2023-02-28T11:14:51;7.28;;;4.45;;
56455;SDS011;42354;53.218;6.564;2023-02-28T11:17:24;7.70;;;4.47;;
56455;SDS011;42354;53.218;6.564;2023-02-28T11:20:04;10.88;;;4.85;;
56455;SDS011;42354;53.218;6.564;2023-02-28T11:22:37;8.88;;;4.68;;
56455;SDS011;42354;53.218;6.564;2023-02-28T11:25:13;8.70;;;4.60;;
56455;SDS011;42354;53.218;6.564;2023-02-28T11:27:47;8.85;;;5.30;;
56455;SDS011;42354;53.218;6.564;2023-02-28T11:30:24;8.40;;;4.50;;
56455;SDS011;42354;53.218;6.564;2023-02-28T11:32:57;6.10;;;3.70;;
56455;SDS011;42354;53.218;6.564;2023-02-28T11:37:55;9.20;;;5.20;;
56455;SDS011;42354;53.218;6.564;2023-02-28T11:40:24;6.93;;;5.18;;
56455;SDS011;42354;53.218;6.564;2023-02-28T11:43:12;7.40;;;4.75;;
56455;SDS011;42354;53.218;6.564;2023-02-28T11:45:55;6.25;;;3.72;;
56455;SDS011;42354;53.218;6.564;2023-02-28T11:48:55;9.57;;;5.10;;
56455;SDS011;42354;53.218;6.564;2023-02-28T11:51:33;8.80;;;5.07;;
56455;SDS011;42354;53.218;6.564;2023-02-28T12:05:24;8.27;;;4.70;;
56455;SDS011;42354;53.218;6.564;2023-02-28T12:19:16;8.15;;;4.40;;
56455;SDS011;42354;53.218;6.564;2023-02-28T12:21:48;9.27;;;5.13;;
56455;SDS011;42354;53.218;6.564;2023-02-28T12:27:33;7.88;;;4.40;;
56455;SDS011;42354;53.218;6.564;2023-02-28T12:33:02;11.38;;;4.68;;
56455;SDS011;42354;53.218;6.564;2023-02-28T12:35:34;8.95;;;5.03;;
56455;SDS011;42354;53.218;6.564;2023-02-28T12:38:41;8.55;;;4.90;;
56455;SDS011;42354;53.218;6.564;2023-02-28T12:43:43;10.10;;;5.50;;
56455;SDS011;42354;53.218;6.564;2023-02-28T12:46:24;8.75;;;5.18;;
56455;SDS011;42354;53.218;6.564;2023-02-28T12:48:57;9.45;;;5.22;;
56455;SDS011;42354;53.218;6.564;2023-02-28T12:51:26;9.53;;;5.47;;
56455;SDS011;42354;53.218;6.564;2023-02-28T12:53:56;10.13;;;6.20;;
56455;SDS011;42354;53.218;6.564;2023-02-28T12:59:03;9.55;;;5.28;;
56455;SDS011;42354;53.218;6.564;2023-02-28T13:01:51;8.32;;;5.35;;
56455;SDS011;42354;53.218;6.564;2023-02-28T13:04:31;11.90;;;6.90;;
56455;SDS011;42354;53.218;6.564;2023-02-28T13:09:31;11.35;;;5.60;;
56455;SDS011;42354;53.218;6.564;2023-02-28T13:11:57;10.52;;;5.80;;
56455;SDS011;42354;53.218;6.564;2023-02-28T13:14:25;9.35;;;5.80;;
56455;SDS011;42354;53.218;6.564;2023-02-28T13:16:58;8.15;;;5.20;;
56455;SDS011;42354;53.218;6.564;2023-02-28T13:19:27;11.45;;;6.03;;
56455;SDS011;42354;53.218;6.564;2023-02-28T13:21:56;9.15;;;5.47;;
56455;SDS011;42354;53.218;6.564;2023-02-28T13:24:43;8.48;;;5.95;;
56455;SDS011;42354;53.218;6.564;2023-02-28T13:29:41;11.73;;;5.88;;
56455;SDS011;42354;53.218;6.564;2023-02-28T13:35:11;10.05;;;5.97;;
56455;SDS011;42354;53.218;6.564;2023-02-28T13:37:33;9.27;;;5.95;;
56455;SDS011;42354;53.218;6.564;2023-02-28T13:42:34;9.40;;;5.63;;
56455;SDS011;42354;53.218;6.564;2023-02-28T13:47:38;8.93;;;5.85;;
56455;SDS011;42354;53.218;6.564;2023-02-28T13:58:46;9.88;;;6.28;;
56455;SDS011;42354;53.218;6.564;2023-02-28T14:04:26;9.73;;;6.60;;
56455;SDS011;42354;53.218;6.564;2023-02-28T14:06:58;11.77;;;6.22;;
56455;SDS011;42354;53.218;6.564;2023-02-28T14:09:25;15.98;;;7.05;;
56455;SDS011;42354;53.218;6.564;2023-02-28T14:17:58;11.23;;;6.57;;
56455;SDS011;42354;53.218;6.564;2023-02-28T14:20:27;14.25;;;6.68;;
56455;SDS011;42354;53.218;6.564;2023-02-28T14:23:06;11.93;;;7.05;;
56455;SDS011;42354;53.218;6.564;2023-02-28T14:26:17;12.52;;;6.38;;
56455;SDS011;42354;53.218;6.564;2023-02-28T14:28:56;10.40;;;6.57;;
56455;SDS011;42354;53.218;6.564;2023-02-28T14:37:02;12.30;;;6.85;;
56455;SDS011;42354;53.218;6.564;2023-02-28T14:39:29;11.18;;;7.47;;
56455;SDS011;42354;53.218;6.564;2023-02-28T14:41:57;12.45;;;7.03;;
56455;SDS011;42354;53.218;6.564;2023-02-28T14:47:04;13.63;;;7.13;;
56455;SDS011;42354;53.218;6.564;2023-02-28T14:49:43;14.02;;;7.13;;
56455;SDS011;42354;53.218;6.564;2023-02-28T14:52:19;12.10;;;6.97;;
56455;SDS011;42354;53.218;6.564;2023-02-28T14:54:51;13.10;;;7.18;;
56455;SDS011;42354;53.218;6.564;2023-02-28T14:57:23;16.92;;;8.43;;
56455;SDS011;42354;53.218;6.564;2023-02-28T15:02:39;11.95;;;7.80;;
56455;SDS011;42354;53.218;6.564;2023-02-28T15:07:37;15.10;;;8.45;;
56455;SDS011;42354;53.218;6.564;2023-02-28T15:12:35;13.98;;;8.18;;
56455;SDS011;42354;53.218;6.564;2023-02-28T15:15:01;13.35;;;8.30;;
56455;SDS011;42354;53.218;6.564;2023-02-28T15:17:28;14.85;;;9.60;;
56455;SDS011;42354;53.218;6.564;2023-02-28T15:19:53;12.50;;;8.13;;
56455;SDS011;42354;53.218;6.564;2023-02-28T15:22:27;13.82;;;8.93;;
56455;SDS011;42354;53.218;6.564;2023-02-28T15:25:00;17.00;;;9.43;;
56455;SDS011;42354;53.218;6.564;2023-02-28T15:27:31;14.57;;;7.68;;
56455;SDS011;42354;53.218;6.564;2023-02-28T15:30:06;16.60;;;7.03;;
56455;SDS011;42354;53.218;6.564;2023-02-28T15:32:37;12.45;;;7.68;;
56455;SDS011;42354;53.218;6.564;2023-02-28T15:40:54;13.50;;;7.53;;
56455;SDS011;42354;53.218;6.564;2023-02-28T15:43:26;10.80;;;7.65;;
56455;SDS011;42354;53.218;6.564;2023-02-28T15:46:00;12.98;;;8.13;;
56455;SDS011;42354;53.218;6.564;2023-02-28T15:48:28;11.20;;;8.10;;
56455;SDS011;42354;53.218;6.564;2023-02-28T15:51:08;14.27;;;8.65;;
56455;SDS011;42354;53.218;6.564;2023-02-28T15:53:54;16.20;;;8.75;;
56455;SDS011;42354;53.218;6.564;2023-02-28T15:56:27;11.25;;;7.60;;
56455;SDS011;42354;53.218;6.564;2023-02-28T15:59:15;12.32;;;8.20;;
56455;SDS011;42354;53.218;6.564;2023-02-28T16:01:45;12.95;;;8.77;;
56455;SDS011;42354;53.218;6.564;2023-02-28T16:04:15;15.20;;;8.88;;
56455;SDS011;42354;53.218;6.564;2023-02-28T16:06:43;13.80;;;8.35;;
56455;SDS011;42354;53.218;6.564;2023-02-28T16:09:10;18.25;;;10.63;;
56455;SDS011;42354;53.218;6.564;2023-02-28T16:11:47;14.50;;;9.82;;
56455;SDS011;42354;53.218;6.564;2023-02-28T16:14:16;14.52;;;9.85;;
56455;SDS011;42354;53.218;6.564;2023-02-28T16:16:54;14.02;;;9.35;;
56455;SDS011;42354;53.218;6.564;2023-02-28T16:19:21;14.93;;;8.98;;
56455;SDS011;42354;53.218;6.564;2023-02-28T16:21:47;14.55;;;9.30;;
56455;SDS011;42354;53.218;6.564;2023-02-28T16:24:13;15.32;;;9.45;;
56455;SDS011;42354;53.218;6.564;2023-02-28T16:26:44;13.15;;;8.55;;
56455;SDS011;42354;53.218;6.564;2023-02-28T16:29:13;15.18;;;8.57;;
56455;SDS011;42354;53.218;6.564;2023-02-28T16:32:04;21.08;;;10.38;;
56455;SDS011;42354;53.218;6.564;2023-02-28T16:34:36;15.27;;;9.85;;
56455;SDS011;42354;53.218;6.564;2023-02-28T16:37:09;15.50;;;8.68;;
56455;SDS011;42354;53.218;6.564;2023-02-28T16:39:37;17.75;;;8.85;;
56455;SDS011;42354;53.218;6.564;2023-02-28T16:42:02;16.50;;;9.45;;
56455;SDS011;42354;53.218;6.564;2023-02-28T16:44:33;14.32;;;9.27;;
56455;SDS011;42354;53.218;6.564;2023-02-28T16:47:00;16.58;;;9.23;;
56455;SDS011;42354;53.218;6.564;2023-02-28T16:49:27;18.08;;;9.70;;
56455;SDS011;42354;53.218;6.564;2023-02-28T16:51:53;13.95;;;9.57;;
56455;SDS011;42354;53.218;6.564;2023-02-28T16:54:20;15.57;;;9.70;;
56455;SDS011;42354;53.218;6.564;2023-02-28T16:56:46;13.60;;;9.07;;
56455;SDS011;42354;53.218;6.564;2023-02-28T16:59:13;16.20;;;9.85;;
56455;SDS011;42354;53.218;6.564;2023-02-28T17:01:43;15.25;;;9.07;;
56455;SDS011;42354;53.218;6.564;2023-02-28T17:04:09;17.52;;;10.70;;
56455;SDS011;42354;53.218;6.564;2023-02-28T17:06:36;13.82;;;9.55;;
56455;SDS011;42354;53.218;6.564;2023-02-28T17:09:01;18.90;;;9.65;;
56455;SDS011;42354;53.218;6.564;2023-02-28T17:11:27;18.48;;;9.73;;
56455;SDS011;42354;53.218;6.564;2023-02-28T17:13:52;17.23;;;10.95;;
56455;SDS011;42354;53.218;6.564;2023-02-28T17:16:29;16.52;;;9.48;;
56455;SDS011;42354;53.218;6.564;2023-02-28T17:18:57;16.00;;;10.02;;
56455;SDS011;42354;53.218;6.564;2023-02-28T17:21:25;15.85;;;10.00;;
56455;SDS011;42354;53.218;6.564;2023-02-28T17:23:51;15.05;;;9.57;;
56455;SDS011;42354;53.218;6.564;2023-02-28T17:26:17;15.15;;;9.70;;
56455;SDS011;42354;53.218;6.564;2023-02-28T17:28:47;14.68;;;9.05;;
56455;SDS011;42354;53.218;6.564;2023-02-28T17:31:13;15.43;;;9.18;;